sensor_id;sensor_type;location;lat;lon;timestamp;temperature;humidity
14349;DHT22;7258;50.376;8.742;2023-02-28T00:00:02;0.80;99.90
14349;DHT22;7258;50.376;8.742;2023-02-28T00:02:10;0.80;99.90
14349;DHT22;7258;50.376;8.742;2023-02-28T00:04:13;0.80;99.90
14349;DHT22;7258;50.376;8.742;2023-02-28T00:06:17;0.80;99.90
14349;DHT22;7258;50.376;8.742;2023-02-28T00:08:20;0.80;99.90
14349;DHT22;7258;50.376;8.742;2023-02-28T00:10:25;0.70;99.90
14349;DHT22;7258;50.376;8.742;2023-02-28T00:12:28;0.70;99.90
14349;DHT22;7258;50.376;8.742;2023-02-28T00:14:31;0.70;99.90
14349;DHT22;7258;50.376;8.742;2023-02-28T00:16:34;0.70;99.90
14349;DHT22;7258;50.376;8.742;2023-02-28T00:18:37;0.70;99.90
14349;DHT22;7258;50.376;8.742;2023-02-28T00:20:41;0.70;99.90
14349;DHT22;7258;50.376;8.742;2023-02-28T00:22:47;0.70;99.90
14349;DHT22;7258;50.376;8.742;2023-02-28T00:24:50;0.70;99.90
14349;DHT22;7258;50.376;8.742;2023-02-28T00:26:53;0.70;99.90
14349;DHT22;7258;50.376;8.742;2023-02-28T00:28:55;0.60;99.90
14349;DHT22;7258;50.376;8.742;2023-02-28T00:30:58;0.60;99.90
14349;DHT22;7258;50.376;8.742;2023-02-28T00:33:02;0.60;99.90
14349;DHT22;7258;50.376;8.742;2023-02-28T00:35:07;0.50;99.90
14349;DHT22;7258;50.376;8.742;2023-02-28T00:37:11;0.50;99.90
14349;DHT22;7258;50.376;8.742;2023-02-28T00:39:19;0.40;99.90
14349;DHT22;7258;50.376;8.742;2023-02-28T00:41:22;0.40;99.90
14349;DHT22;7258;50.376;8.742;2023-02-28T00:43:25;0.30;99.90
14349;DHT22;7258;50.376;8.742;2023-02-28T00:45:28;0.20;99.90
14349;DHT22;7258;50.376;8.742;2023-02-28T00:47:31;0.10;99.90
14349;DHT22;7258;50.376;8.742;2023-02-28T00:49:35;0.10;99.90
14349;DHT22;7258;50.376;8.742;2023-02-28T00:51:37;0.00;99.90
14349;DHT22;7258;50.376;8.742;2023-02-28T00:53:40;-0.10;99.90
14349;DHT22;7258;50.376;8.742;2023-02-28T00:55:45;-0.10;99.90
14349;DHT22;7258;50.376;8.742;2023-02-28T00:57:48;-0.20;99.90
14349;DHT22;7258;50.376;8.742;2023-02-28T00:59:50;-0.20;99.90
14349;DHT22;7258;50.376;8.742;2023-02-28T01:01:55;-0.30;99.90
14349;DHT22;7258;50.376;8.742;2023-02-28T01:03:58;-0.30;99.90
14349;DHT22;7258;50.376;8.742;2023-02-28T01:06:01;-0.40;99.90
14349;DHT22;7258;50.376;8.742;2023-02-28T01:08:04;-0.40;99.90
14349;DHT22;7258;50.376;8.742;2023-02-28T01:10:09;-0.40;99.90
14349;DHT22;7258;50.376;8.742;2023-02-28T01:12:13;-0.40;99.90
14349;DHT22;7258;50.376;8.742;2023-02-28T01:14:17;-0.50;99.90
14349;DHT22;7258;50.376;8.742;2023-02-28T01:16:20;-0.60;99.90
14349;DHT22;7258;50.376;8.742;2023-02-28T01:18:23;-0.60;99.90
14349;DHT22;7258;50.376;8.742;2023-02-28T01:20:26;-0.70;99.90
14349;DHT22;7258;50.376;8.742;2023-02-28T01:22:29;-0.70;99.90
14349;DHT22;7258;50.376;8.742;2023-02-28T01:24:32;-0.70;99.90
14349;DHT22;7258;50.376;8.742;2023-02-28T01:26:35;-0.80;99.90
14349;DHT22;7258;50.376;8.742;2023-02-28T01:28:40;-0.80;99.90
14349;DHT22;7258;50.376;8.742;2023-02-28T01:30:46;-0.80;99.90
14349;DHT22;7258;50.376;8.742;2023-02-28T01:32:49;-0.80;99.90
14349;DHT22;7258;50.376;8.742;2023-02-28T01:34:55;-0.80;99.90
14349;DHT22;7258;50.376;8.742;2023-02-28T01:36:57;-0.90;99.90
14349;DHT22;7258;50.376;8.742;2023-02-28T01:39:01;-0.90;99.90
14349;DHT22;7258;50.376;8.742;2023-02-28T01:41:04;-1.00;99.90
14349;DHT22;7258;50.376;8.742;2023-02-28T01:43:19;-1.00;99.90
14349;DHT22;7258;50.376;8.742;2023-02-28T01:45:27;-1.00;99.90
14349;DHT22;7258;50.376;8.742;2023-02-28T01:47:32;-1.00;99.90
14349;DHT22;7258;50.376;8.742;2023-02-28T01:49:37;-1.00;99.90
14349;DHT22;7258;50.376;8.742;2023-02-28T01:51:44;-0.90;99.90
14349;DHT22;7258;50.376;8.742;2023-02-28T01:53:56;-0.90;99.90
14349;DHT22;7258;50.376;8.742;2023-02-28T01:56:00;-0.90;99.90
14349;DHT22;7258;50.376;8.742;2023-02-28T01:58:06;-0.90;99.90
14349;DHT22;7258;50.376;8.742;2023-02-28T02:00:13;-0.90;99.90
14349;DHT22;7258;50.376;8.742;2023-02-28T02:02:20;-1.00;99.90
14349;DHT22;7258;50.376;8.742;2023-02-28T02:04:27;-1.00;99.90
14349;DHT22;7258;50.376;8.742;2023-02-28T02:06:38;-1.00;99.90
14349;DHT22;7258;50.376;8.742;2023-02-28T02:08:41;-1.00;99.90
14349;DHT22;7258;50.376;8.742;2023-02-28T02:10:46;-1.00;99.90
14349;DHT22;7258;50.376;8.742;2023-02-28T02:13:14;-1.00;99.90
14349;DHT22;7258;50.376;8.742;2023-02-28T02:15:26;-1.00;99.90
14349;DHT22;7258;50.376;8.742;2023-02-28T02:17:37;-1.00;99.90
14349;DHT22;7258;50.376;8.742;2023-02-28T02:20:04;-1.00;99.90
14349;DHT22;7258;50.376;8.742;2023-02-28T02:22:33;-1.00;99.90
14349;DHT22;7258;50.376;8.742;2023-02-28T02:24:58;-1.10;99.90
14349;DHT22;7258;50.376;8.742;2023-02-28T02:27:38;-1.10;99.90
14349;DHT22;7258;50.376;8.742;2023-02-28T02:32:43;-1.10;99.90
14349;DHT22;7258;50.376;8.742;2023-02-28T02:34:55;-1.10;99.90
14349;DHT22;7258;50.376;8.742;2023-02-28T02:37:06;-1.10;99.90
14349;DHT22;7258;50.376;8.742;2023-02-28T02:39:14;-1.10;99.90
14349;DHT22;7258;50.376;8.742;2023-02-28T02:41:24;-1.20;99.90
14349;DHT22;7258;50.376;8.742;2023-02-28T02:43:33;-1.20;99.90
14349;DHT22;7258;50.376;8.742;2023-02-28T02:45:43;-1.20;99.90
14349;DHT22;7258;50.376;8.742;2023-02-28T02:47:49;-1.20;99.90
14349;DHT22;7258;50.376;8.742;2023-02-28T02:49:56;-1.20;99.90
14349;DHT22;7258;50.376;8.742;2023-02-28T02:52:03;-1.20;99.90
14349;DHT22;7258;50.376;8.742;2023-02-28T02:54:11;-1.20;99.90
14349;DHT22;7258;50.376;8.742;2023-02-28T02:56:18;-1.20;99.90
14349;DHT22;7258;50.376;8.742;2023-02-28T02:58:24;-1.20;99.90
14349;DHT22;7258;50.376;8.742;2023-02-28T03:00:32;-1.20;99.90
14349;DHT22;7258;50.376;8.742;2023-02-28T03:02:38;-1.20;99.90
14349;DHT22;7258;50.376;8.742;2023-02-28T03:04:44;-1.20;99.90
14349;DHT22;7258;50.376;8.742;2023-02-28T03:06:50;-1.20;99.90
14349;DHT22;7258;50.376;8.742;2023-02-28T03:08:56;-1.20;99.90
14349;DHT22;7258;50.376;8.742;2023-02-28T03:11:01;-1.20;99.90
14349;DHT22;7258;50.376;8.742;2023-02-28T03:15:58;-1.30;99.90
14349;DHT22;7258;50.376;8.742;2023-02-28T03:18:10;-1.30;99.90
14349;DHT22;7258;50.376;8.742;2023-02-28T03:20:27;-1.30;99.90
14349;DHT22;7258;50.376;8.742;2023-02-28T03:22:45;-1.30;99.90
14349;DHT22;7258;50.376;8.742;2023-02-28T03:24:56;-1.30;99.90
14349;DHT22;7258;50.376;8.742;2023-02-28T03:27:06;-1.20;99.90
14349;DHT22;7258;50.376;8.742;2023-02-28T03:29:15;-1.30;99.90
14349;DHT22;7258;50.376;8.742;2023-02-28T03:31:24;-1.30;99.90
14349;DHT22;7258;50.376;8.742;2023-02-28T03:33:30;-1.30;99.90
14349;DHT22;7258;50.376;8.742;2023-02-28T03:35:37;-1.30;99.90
14349;DHT22;7258;50.376;8.742;2023-02-28T03:37:44;-1.30;99.90
14349;DHT22;7258;50.376;8.742;2023-02-28T03:39:51;-1.30;99.90
14349;DHT22;7258;50.376;8.742;2023-02-28T03:41:59;-1.30;99.90
14349;DHT22;7258;50.376;8.742;2023-02-28T03:44:06;-1.30;99.90
14349;DHT22;7258;50.376;8.742;2023-02-28T03:46:12;-1.40;99.90
14349;DHT22;7258;50.376;8.742;2023-02-28T03:48:21;-1.30;99.90
14349;DHT22;7258;50.376;8.742;2023-02-28T03:50:31;-1.30;99.90
14349;DHT22;7258;50.376;8.742;2023-02-28T03:52:44;-1.40;99.90
14349;DHT22;7258;50.376;8.742;2023-02-28T03:54:52;-1.40;99.90
14349;DHT22;7258;50.376;8.742;2023-02-28T03:57:00;-1.40;99.90
14349;DHT22;7258;50.376;8.742;2023-02-28T03:59:07;-1.50;99.90
14349;DHT22;7258;50.376;8.742;2023-02-28T04:01:16;-1.50;99.90
14349;DHT22;7258;50.376;8.742;2023-02-28T04:03:21;-1.50;99.90
14349;DHT22;7258;50.376;8.742;2023-02-28T04:05:25;-1.50;99.90
14349;DHT22;7258;50.376;8.742;2023-02-28T04:07:29;-1.50;99.90
14349;DHT22;7258;50.376;8.742;2023-02-28T04:09:40;-1.50;99.90
14349;DHT22;7258;50.376;8.742;2023-02-28T04:11:46;-1.50;99.90
14349;DHT22;7258;50.376;8.742;2023-02-28T04:13:52;-1.60;99.90
14349;DHT22;7258;50.376;8.742;2023-02-28T04:15:55;-1.60;99.90
14349;DHT22;7258;50.376;8.742;2023-02-28T04:17:59;-1.60;99.90
14349;DHT22;7258;50.376;8.742;2023-02-28T04:20:02;-1.70;99.90
14349;DHT22;7258;50.376;8.742;2023-02-28T04:22:11;-1.70;99.90
14349;DHT22;7258;50.376;8.742;2023-02-28T04:24:16;-1.70;99.90
14349;DHT22;7258;50.376;8.742;2023-02-28T04:26:23;-1.80;99.90
14349;DHT22;7258;50.376;8.742;2023-02-28T04:28:26;-1.80;99.90
14349;DHT22;7258;50.376;8.742;2023-02-28T04:30:29;-1.80;99.90
14349;DHT22;7258;50.376;8.742;2023-02-28T04:32:34;-1.80;99.90
14349;DHT22;7258;50.376;8.742;2023-02-28T04:34:37;-1.80;99.90
14349;DHT22;7258;50.376;8.742;2023-02-28T04:36:40;-1.80;99.90
14349;DHT22;7258;50.376;8.742;2023-02-28T04:38:45;-1.90;99.90
14349;DHT22;7258;50.376;8.742;2023-02-28T04:40:48;-1.90;99.90
14349;DHT22;7258;50.376;8.742;2023-02-28T04:42:52;-1.90;99.90
14349;DHT22;7258;50.376;8.742;2023-02-28T04:44:55;-2.00;99.90
14349;DHT22;7258;50.376;8.742;2023-02-28T04:46:58;-2.00;99.90
14349;DHT22;7258;50.376;8.742;2023-02-28T04:49:01;-2.00;99.90
14349;DHT22;7258;50.376;8.742;2023-02-28T04:51:05;-2.00;99.90
14349;DHT22;7258;50.376;8.742;2023-02-28T04:53:08;-2.00;99.90
14349;DHT22;7258;50.376;8.742;2023-02-28T04:55:11;-2.10;99.90
14349;DHT22;7258;50.376;8.742;2023-02-28T04:57:14;-2.10;99.90
14349;DHT22;7258;50.376;8.742;2023-02-28T04:59:18;-2.00;99.90
14349;DHT22;7258;50.376;8.742;2023-02-28T05:01:23;-2.10;99.90
14349;DHT22;7258;50.376;8.742;2023-02-28T05:03:27;-2.00;99.90
14349;DHT22;7258;50.376;8.742;2023-02-28T05:05:30;-2.00;99.90
14349;DHT22;7258;50.376;8.742;2023-02-28T05:07:33;-2.00;99.90
14349;DHT22;7258;50.376;8.742;2023-02-28T05:09:35;-1.90;99.90
14349;DHT22;7258;50.376;8.742;2023-02-28T05:11:39;-1.80;99.90
14349;DHT22;7258;50.376;8.742;2023-02-28T05:13:42;-1.80;99.90
14349;DHT22;7258;50.376;8.742;2023-02-28T05:15:47;-1.80;99.90
14349;DHT22;7258;50.376;8.742;2023-02-28T05:17:50;-1.80;99.90
14349;DHT22;7258;50.376;8.742;2023-02-28T05:19:53;-1.90;99.90
14349;DHT22;7258;50.376;8.742;2023-02-28T05:22:13;-1.80;99.90
14349;DHT22;7258;50.376;8.742;2023-02-28T05:24:17;-1.80;99.90
14349;DHT22;7258;50.376;8.742;2023-02-28T05:26:25;-1.80;99.90
14349;DHT22;7258;50.376;8.742;2023-02-28T05:28:28;-1.80;99.90
14349;DHT22;7258;50.376;8.742;2023-02-28T05:30:31;-1.70;99.90
14349;DHT22;7258;50.376;8.742;2023-02-28T05:32:35;-1.80;99.90
14349;DHT22;7258;50.376;8.742;2023-02-28T05:34:39;-1.80;99.90
14349;DHT22;7258;50.376;8.742;2023-02-28T05:36:42;-1.70;99.90
14349;DHT22;7258;50.376;8.742;2023-02-28T05:38:46;-1.80;99.90
14349;DHT22;7258;50.376;8.742;2023-02-28T05:40:49;-1.70;99.90
14349;DHT22;7258;50.376;8.742;2023-02-28T05:42:52;-1.70;99.90
14349;DHT22;7258;50.376;8.742;2023-02-28T05:44:55;-1.70;99.90
14349;DHT22;7258;50.376;8.742;2023-02-28T05:46:58;-1.70;99.90
14349;DHT22;7258;50.376;8.742;2023-02-28T05:49:02;-1.70;99.90
14349;DHT22;7258;50.376;8.742;2023-02-28T05:51:06;-1.60;99.90
14349;DHT22;7258;50.376;8.742;2023-02-28T05:53:09;-1.60;99.90
14349;DHT22;7258;50.376;8.742;2023-02-28T05:55:12;-1.60;99.90
14349;DHT22;7258;50.376;8.742;2023-02-28T05:57:15;-1.60;99.90
14349;DHT22;7258;50.376;8.742;2023-02-28T05:59:25;-1.50;99.90
14349;DHT22;7258;50.376;8.742;2023-02-28T06:01:33;-1.50;99.90
14349;DHT22;7258;50.376;8.742;2023-02-28T06:03:36;-1.50;99.90
14349;DHT22;7258;50.376;8.742;2023-02-28T06:05:40;-1.40;99.90
14349;DHT22;7258;50.376;8.742;2023-02-28T06:07:44;-1.30;99.90
14349;DHT22;7258;50.376;8.742;2023-02-28T06:09:47;-1.30;99.90
14349;DHT22;7258;50.376;8.742;2023-02-28T06:11:50;-1.20;99.90
14349;DHT22;7258;50.376;8.742;2023-02-28T06:13:53;-1.20;99.90
14349;DHT22;7258;50.376;8.742;2023-02-28T06:16:00;-1.10;99.90
14349;DHT22;7258;50.376;8.742;2023-02-28T06:18:03;-1.10;99.90
14349;DHT22;7258;50.376;8.742;2023-02-28T06:20:07;-1.00;99.90
14349;DHT22;7258;50.376;8.742;2023-02-28T06:22:12;-1.00;99.90
14349;DHT22;7258;50.376;8.742;2023-02-28T06:24:15;-0.90;99.90
14349;DHT22;7258;50.376;8.742;2023-02-28T06:26:19;-0.90;99.90
14349;DHT22;7258;50.376;8.742;2023-02-28T06:28:22;-0.90;99.90
14349;DHT22;7258;50.376;8.742;2023-02-28T06:30:25;-0.80;99.90
14349;DHT22;7258;50.376;8.742;2023-02-28T06:32:31;-0.80;99.90
14349;DHT22;7258;50.376;8.742;2023-02-28T06:34:35;-0.80;99.90
14349;DHT22;7258;50.376;8.742;2023-02-28T06:36:39;-0.70;99.90
14349;DHT22;7258;50.376;8.742;2023-02-28T06:38:45;-0.70;99.90
14349;DHT22;7258;50.376;8.742;2023-02-28T06:40:53;-0.60;99.90
14349;DHT22;7258;50.376;8.742;2023-02-28T06:42:56;-0.50;99.90
14349;DHT22;7258;50.376;8.742;2023-02-28T06:44:59;-0.50;99.90
14349;DHT22;7258;50.376;8.742;2023-02-28T06:47:05;-0.40;99.90
14349;DHT22;7258;50.376;8.742;2023-02-28T06:49:09;-0.40;99.90
14349;DHT22;7258;50.376;8.742;2023-02-28T06:51:14;-0.30;99.90
14349;DHT22;7258;50.376;8.742;2023-02-28T06:53:18;-0.30;99.90
14349;DHT22;7258;50.376;8.742;2023-02-28T06:55:22;-0.20;99.90
14349;DHT22;7258;50.376;8.742;2023-02-28T06:57:26;-0.20;99.90
14349;DHT22;7258;50.376;8.742;2023-02-28T06:59:32;-0.20;99.90
14349;DHT22;7258;50.376;8.742;2023-02-28T07:01:36;-0.20;99.90
14349;DHT22;7258;50.376;8.742;2023-02-28T07:03:40;-0.20;99.90
14349;DHT22;7258;50.376;8.742;2023-02-28T07:05:43;-0.10;99.90
14349;DHT22;7258;50.376;8.742;2023-02-28T07:07:47;-0.10;99.90
14349;DHT22;7258;50.376;8.742;2023-02-28T07:09:53;-0.10;99.90
14349;DHT22;7258;50.376;8.742;2023-02-28T07:11:58;-0.10;99.90
14349;DHT22;7258;50.376;8.742;2023-02-28T07:14:02;-0.10;99.90
14349;DHT22;7258;50.376;8.742;2023-02-28T07:16:07;-0.10;99.90
14349;DHT22;7258;50.376;8.742;2023-02-28T07:18:10;-0.10;99.90
14349;DHT22;7258;50.376;8.742;2023-02-28T07:20:13;0.00;99.90
14349;DHT22;7258;50.376;8.742;2023-02-28T07:22:16;0.00;99.90
14349;DHT22;7258;50.376;8.742;2023-02-28T07:24:19;0.10;99.90
14349;DHT22;7258;50.376;8.742;2023-02-28T07:26:25;0.10;99.90
14349;DHT22;7258;50.376;8.742;2023-02-28T07:28:30;0.10;99.90
14349;DHT22;7258;50.376;8.742;2023-02-28T07:30:33;0.20;99.90
14349;DHT22;7258;50.376;8.742;2023-02-28T07:32:36;0.20;99.90
14349;DHT22;7258;50.376;8.742;2023-02-28T07:34:39;0.20;99.90
14349;DHT22;7258;50.376;8.742;2023-02-28T07:36:42;0.20;99.90
14349;DHT22;7258;50.376;8.742;2023-02-28T07:38:47;0.20;99.90
14349;DHT22;7258;50.376;8.742;2023-02-28T07:40:51;0.20;99.90
14349;DHT22;7258;50.376;8.742;2023-02-28T07:42:54;0.30;99.90
14349;DHT22;7258;50.376;8.742;2023-02-28T07:44:59;0.30;99.90
14349;DHT22;7258;50.376;8.742;2023-02-28T07:47:02;0.40;99.90
14349;DHT22;7258;50.376;8.742;2023-02-28T07:49:06;0.50;99.90
14349;DHT22;7258;50.376;8.742;2023-02-28T07:51:09;0.50;99.90
14349;DHT22;7258;50.376;8.742;2023-02-28T07:53:12;0.60;99.90
14349;DHT22;7258;50.376;8.742;2023-02-28T07:55:15;0.60;99.90
14349;DHT22;7258;50.376;8.742;2023-02-28T07:57:18;0.70;99.90
14349;DHT22;7258;50.376;8.742;2023-02-28T07:59:21;0.80;99.90
14349;DHT22;7258;50.376;8.742;2023-02-28T08:01:25;0.90;99.90
14349;DHT22;7258;50.376;8.742;2023-02-28T08:03:29;0.90;99.90
14349;DHT22;7258;50.376;8.742;2023-02-28T08:05:32;1.00;99.90
14349;DHT22;7258;50.376;8.742;2023-02-28T08:07:35;1.10;99.90
14349;DHT22;7258;50.376;8.742;2023-02-28T08:09:38;1.20;99.90
14349;DHT22;7258;50.376;8.742;2023-02-28T08:11:41;1.30;99.90
14349;DHT22;7258;50.376;8.742;2023-02-28T08:13:44;1.30;99.90
14349;DHT22;7258;50.376;8.742;2023-02-28T08:15:47;1.30;99.90
14349;DHT22;7258;50.376;8.742;2023-02-28T08:17:55;1.30;99.90
14349;DHT22;7258;50.376;8.742;2023-02-28T08:19:58;1.30;99.90
14349;DHT22;7258;50.376;8.742;2023-02-28T08:22:01;1.30;99.90
14349;DHT22;7258;50.376;8.742;2023-02-28T08:24:05;1.30;99.90
14349;DHT22;7258;50.376;8.742;2023-02-28T08:26:08;1.30;99.90
14349;DHT22;7258;50.376;8.742;2023-02-28T08:28:11;1.30;99.90
14349;DHT22;7258;50.376;8.742;2023-02-28T08:30:14;1.40;99.90
14349;DHT22;7258;50.376;8.742;2023-02-28T08:32:18;1.40;99.90
14349;DHT22;7258;50.376;8.742;2023-02-28T08:34:32;1.50;99.90
14349;DHT22;7258;50.376;8.742;2023-02-28T08:36:35;1.50;99.90
14349;DHT22;7258;50.376;8.742;2023-02-28T08:38:38;1.60;99.90
14349;DHT22;7258;50.376;8.742;2023-02-28T08:40:41;1.70;99.90
14349;DHT22;7258;50.376;8.742;2023-02-28T08:42:44;1.70;99.90
14349;DHT22;7258;50.376;8.742;2023-02-28T08:44:47;1.80;99.90
14349;DHT22;7258;50.376;8.742;2023-02-28T08:46:50;1.80;99.90
14349;DHT22;7258;50.376;8.742;2023-02-28T08:48:56;1.90;99.90
14349;DHT22;7258;50.376;8.742;2023-02-28T08:51:05;2.00;99.90
14349;DHT22;7258;50.376;8.742;2023-02-28T08:53:09;2.00;99.90
14349;DHT22;7258;50.376;8.742;2023-02-28T08:55:12;2.10;99.90
14349;DHT22;7258;50.376;8.742;2023-02-28T08:57:15;2.20;99.90
14349;DHT22;7258;50.376;8.742;2023-02-28T08:59:18;2.20;99.90
14349;DHT22;7258;50.376;8.742;2023-02-28T09:01:22;2.30;99.90
14349;DHT22;7258;50.376;8.742;2023-02-28T09:03:26;2.30;99.90
14349;DHT22;7258;50.376;8.742;2023-02-28T09:05:29;2.30;99.90
14349;DHT22;7258;50.376;8.742;2023-02-28T09:07:34;2.30;99.90
14349;DHT22;7258;50.376;8.742;2023-02-28T09:09:37;2.40;99.90
14349;DHT22;7258;50.376;8.742;2023-02-28T09:11:55;2.50;99.90
14349;DHT22;7258;50.376;8.742;2023-02-28T09:13:58;2.60;99.90
14349;DHT22;7258;50.376;8.742;2023-02-28T09:16:04;2.70;99.90
14349;DHT22;7258;50.376;8.742;2023-02-28T09:18:07;2.80;99.50
14349;DHT22;7258;50.376;8.742;2023-02-28T09:20:11;2.80;99.10
14349;DHT22;7258;50.376;8.742;2023-02-28T09:22:15;2.90;98.20
14349;DHT22;7258;50.376;8.742;2023-02-28T09:24:19;2.90;98.00
14349;DHT22;7258;50.376;8.742;2023-02-28T09:26:26;3.00;98.40
14349;DHT22;7258;50.376;8.742;2023-02-28T09:28:43;3.00;97.90
14349;DHT22;7258;50.376;8.742;2023-02-28T09:30:49;3.10;97.30
14349;DHT22;7258;50.376;8.742;2023-02-28T09:32:52;3.10;97.50
14349;DHT22;7258;50.376;8.742;2023-02-28T09:34:55;3.20;97.20
14349;DHT22;7258;50.376;8.742;2023-02-28T09:36:58;3.20;97.20
14349;DHT22;7258;50.376;8.742;2023-02-28T09:39:02;3.20;96.90
14349;DHT22;7258;50.376;8.742;2023-02-28T09:41:13;3.20;97.30
14349;DHT22;7258;50.376;8.742;2023-02-28T09:43:19;3.30;96.70
14349;DHT22;7258;50.376;8.742;2023-02-28T09:45:24;3.30;96.80
14349;DHT22;7258;50.376;8.742;2023-02-28T09:47:32;3.40;96.70
14349;DHT22;7258;50.376;8.742;2023-02-28T09:49:39;3.40;96.60
14349;DHT22;7258;50.376;8.742;2023-02-28T09:51:49;3.40;97.20
14349;DHT22;7258;50.376;8.742;2023-02-28T09:53:57;3.50;96.70
14349;DHT22;7258;50.376;8.742;2023-02-28T09:56:05;3.40;96.20
14349;DHT22;7258;50.376;8.742;2023-02-28T09:58:17;3.40;96.10
14349;DHT22;7258;50.376;8.742;2023-02-28T10:00:26;3.40;95.90
14349;DHT22;7258;50.376;8.742;2023-02-28T10:02:46;3.40;96.40
14349;DHT22;7258;50.376;8.742;2023-02-28T10:04:54;3.50;95.60
14349;DHT22;7258;50.376;8.742;2023-02-28T10:07:01;3.60;95.70
14349;DHT22;7258;50.376;8.742;2023-02-28T10:09:14;3.60;95.60
14349;DHT22;7258;50.376;8.742;2023-02-28T10:11:19;3.60;95.90
14349;DHT22;7258;50.376;8.742;2023-02-28T10:13:31;3.60;95.60
14349;DHT22;7258;50.376;8.742;2023-02-28T10:15:36;3.60;95.80
14349;DHT22;7258;50.376;8.742;2023-02-28T10:17:41;3.60;96.00
14349;DHT22;7258;50.376;8.742;2023-02-28T10:20:00;3.50;95.90
14349;DHT22;7258;50.376;8.742;2023-02-28T10:22:11;3.60;95.80
14349;DHT22;7258;50.376;8.742;2023-02-28T10:24:21;3.60;96.60
14349;DHT22;7258;50.376;8.742;2023-02-28T10:26:26;3.70;95.40
14349;DHT22;7258;50.376;8.742;2023-02-28T10:28:33;3.70;95.40
14349;DHT22;7258;50.376;8.742;2023-02-28T10:30:38;3.80;95.10
14349;DHT22;7258;50.376;8.742;2023-02-28T10:32:47;3.80;95.40
14349;DHT22;7258;50.376;8.742;2023-02-28T10:34:55;3.80;95.00
14349;DHT22;7258;50.376;8.742;2023-02-28T10:37:00;3.80;95.10
14349;DHT22;7258;50.376;8.742;2023-02-28T10:39:34;3.70;94.70
14349;DHT22;7258;50.376;8.742;2023-02-28T10:41:42;3.60;94.90
14349;DHT22;7258;50.376;8.742;2023-02-28T10:43:48;3.50;95.00
14349;DHT22;7258;50.376;8.742;2023-02-28T10:46:02;3.40;95.00
14349;DHT22;7258;50.376;8.742;2023-02-28T10:48:27;3.30;95.20
14349;DHT22;7258;50.376;8.742;2023-02-28T10:50:43;3.40;95.70
14349;DHT22;7258;50.376;8.742;2023-02-28T10:52:46;3.40;95.50
14349;DHT22;7258;50.376;8.742;2023-02-28T10:54:49;3.40;94.80
14349;DHT22;7258;50.376;8.742;2023-02-28T10:57:08;3.40;95.00
14349;DHT22;7258;50.376;8.742;2023-02-28T10:59:28;3.40;95.20
14349;DHT22;7258;50.376;8.742;2023-02-28T11:01:36;3.60;95.30
14349;DHT22;7258;50.376;8.742;2023-02-28T11:03:40;3.80;95.10
14349;DHT22;7258;50.376;8.742;2023-02-28T11:05:43;4.00;94.80
14349;DHT22;7258;50.376;8.742;2023-02-28T11:07:51;4.10;94.10
14349;DHT22;7258;50.376;8.742;2023-02-28T11:09:57;4.20;94.40
14349;DHT22;7258;50.376;8.742;2023-02-28T11:12:01;4.30;94.10
14349;DHT22;7258;50.376;8.742;2023-02-28T11:14:05;4.30;93.90
14349;DHT22;7258;50.376;8.742;2023-02-28T11:16:12;4.20;93.70
14349;DHT22;7258;50.376;8.742;2023-02-28T11:18:23;4.10;93.80
14349;DHT22;7258;50.376;8.742;2023-02-28T11:20:29;4.00;93.70
14349;DHT22;7258;50.376;8.742;2023-02-28T11:22:39;3.90;94.00
14349;DHT22;7258;50.376;8.742;2023-02-28T11:25:00;3.90;94.20
14349;DHT22;7258;50.376;8.742;2023-02-28T11:27:05;4.00;94.30
14349;DHT22;7258;50.376;8.742;2023-02-28T11:29:18;3.90;93.60
14349;DHT22;7258;50.376;8.742;2023-02-28T11:31:23;3.90;93.90
14349;DHT22;7258;50.376;8.742;2023-02-28T11:33:29;4.00;94.20
14349;DHT22;7258;50.376;8.742;2023-02-28T11:35:36;4.10;94.20
14349;DHT22;7258;50.376;8.742;2023-02-28T11:37:40;4.10;93.70
14349;DHT22;7258;50.376;8.742;2023-02-28T11:39:44;4.00;93.90
14349;DHT22;7258;50.376;8.742;2023-02-28T11:42:02;4.10;94.30
14349;DHT22;7258;50.376;8.742;2023-02-28T11:44:20;4.20;94.60
14349;DHT22;7258;50.376;8.742;2023-02-28T11:46:33;4.40;94.20
14349;DHT22;7258;50.376;8.742;2023-02-28T11:48:44;4.50;94.30
14349;DHT22;7258;50.376;8.742;2023-02-28T11:51:01;4.60;93.20
14349;DHT22;7258;50.376;8.742;2023-02-28T11:53:12;4.50;93.20
14349;DHT22;7258;50.376;8.742;2023-02-28T11:55:21;4.30;93.20
14349;DHT22;7258;50.376;8.742;2023-02-28T11:57:36;4.20;93.30
14349;DHT22;7258;50.376;8.742;2023-02-28T11:59:55;4.10;93.60
14349;DHT22;7258;50.376;8.742;2023-02-28T12:02:23;4.00;93.50
14349;DHT22;7258;50.376;8.742;2023-02-28T12:04:30;4.00;93.70
14349;DHT22;7258;50.376;8.742;2023-02-28T12:06:44;4.00;94.20
14349;DHT22;7258;50.376;8.742;2023-02-28T12:09:02;3.90;94.10
14349;DHT22;7258;50.376;8.742;2023-02-28T12:11:12;3.90;94.30
14349;DHT22;7258;50.376;8.742;2023-02-28T12:13:20;4.00;94.30
14349;DHT22;7258;50.376;8.742;2023-02-28T12:15:33;4.20;94.70
14349;DHT22;7258;50.376;8.742;2023-02-28T12:17:52;4.20;94.30
14349;DHT22;7258;50.376;8.742;2023-02-28T12:20:05;4.30;94.40
14349;DHT22;7258;50.376;8.742;2023-02-28T12:22:22;4.30;94.00
14349;DHT22;7258;50.376;8.742;2023-02-28T12:24:44;4.30;94.20
14349;DHT22;7258;50.376;8.742;2023-02-28T12:26:49;4.40;93.90
14349;DHT22;7258;50.376;8.742;2023-02-28T12:28:57;4.40;94.10
14349;DHT22;7258;50.376;8.742;2023-02-28T12:31:10;4.40;93.80
14349;DHT22;7258;50.376;8.742;2023-02-28T12:33:27;4.50;93.90
14349;DHT22;7258;50.376;8.742;2023-02-28T12:35:37;4.40;93.80
14349;DHT22;7258;50.376;8.742;2023-02-28T12:37:44;4.40;94.50
14349;DHT22;7258;50.376;8.742;2023-02-28T12:39:54;4.50;94.70
14349;DHT22;7258;50.376;8.742;2023-02-28T12:42:00;4.50;94.00
14349;DHT22;7258;50.376;8.742;2023-02-28T12:44:09;4.40;93.70
14349;DHT22;7258;50.376;8.742;2023-02-28T12:46:17;4.40;94.40
14349;DHT22;7258;50.376;8.742;2023-02-28T12:48:27;4.40;95.00
14349;DHT22;7258;50.376;8.742;2023-02-28T12:50:32;4.40;94.60
14349;DHT22;7258;50.376;8.742;2023-02-28T12:52:41;4.30;94.50
14349;DHT22;7258;50.376;8.742;2023-02-28T12:54:52;4.20;94.30
14349;DHT22;7258;50.376;8.742;2023-02-28T12:57:06;4.20;94.30
14349;DHT22;7258;50.376;8.742;2023-02-28T12:59:20;4.20;94.40
14349;DHT22;7258;50.376;8.742;2023-02-28T13:01:40;4.20;94.40
14349;DHT22;7258;50.376;8.742;2023-02-28T13:04:02;4.30;95.00
14349;DHT22;7258;50.376;8.742;2023-02-28T13:06:22;4.30;94.50
14349;DHT22;7258;50.376;8.742;2023-02-28T13:11:25;4.60;94.50
14349;DHT22;7258;50.376;8.742;2023-02-28T13:13:29;4.60;94.40
14349;DHT22;7258;50.376;8.742;2023-02-28T13:15:33;4.70;94.80
14349;DHT22;7258;50.376;8.742;2023-02-28T13:17:42;4.70;94.90
14349;DHT22;7258;50.376;8.742;2023-02-28T13:19:58;4.70;94.70
14349;DHT22;7258;50.376;8.742;2023-02-28T13:22:02;4.80;94.70
14349;DHT22;7258;50.376;8.742;2023-02-28T13:24:07;4.80;94.90
14349;DHT22;7258;50.376;8.742;2023-02-28T13:26:13;4.80;94.40
14349;DHT22;7258;50.376;8.742;2023-02-28T13:31:10;4.90;94.60
14349;DHT22;7258;50.376;8.742;2023-02-28T13:33:27;4.90;94.10
14349;DHT22;7258;50.376;8.742;2023-02-28T13:35:44;4.80;94.30
14349;DHT22;7258;50.376;8.742;2023-02-28T13:37:48;4.80;94.50
14349;DHT22;7258;50.376;8.742;2023-02-28T13:39:56;4.70;94.40
14349;DHT22;7258;50.376;8.742;2023-02-28T13:42:23;4.60;94.80
14349;DHT22;7258;50.376;8.742;2023-02-28T13:44:26;4.60;94.70
14349;DHT22;7258;50.376;8.742;2023-02-28T13:46:30;4.60;94.80
14349;DHT22;7258;50.376;8.742;2023-02-28T13:48:33;4.50;94.90
14349;DHT22;7258;50.376;8.742;2023-02-28T13:50:39;4.50;94.80
14349;DHT22;7258;50.376;8.742;2023-02-28T13:52:53;4.50;94.80